createdAt,value
2019-05-26T00:00:07.607Z,100946.18
2019-05-26T00:02:37.143Z,100941.14
2019-05-26T00:05:06.789Z,100941.84
2019-05-26T00:07:36.255Z,100942.45
2019-05-26T00:10:06.578Z,100944.40
2019-05-26T00:12:36.032Z,100942.58
2019-05-26T00:15:06.043Z,100935.28
2019-05-26T00:17:36.256Z,100940.80
2019-05-26T00:20:06.037Z,100935.28
2019-05-26T00:22:35.477Z,100926.55
2019-05-26T00:25:05.215Z,100916.47
2019-05-26T00:27:34.695Z,100911.34
2019-05-26T00:30:04.208Z,100917.09
2019-05-26T00:32:33.699Z,100910.61
2019-05-26T00:35:03.147Z,100902.70
2019-05-26T00:37:47.774Z,100902.46
2019-05-26T00:40:04.609Z,100899.36
2019-05-26T00:42:34.094Z,100897.92
2019-05-26T00:45:03.578Z,100893.38
2019-05-26T00:47:33.064Z,100889.28
2019-05-26T00:50:02.659Z,100891.69
2019-05-26T00:52:32.106Z,100888.81
2019-05-26T00:55:01.849Z,100884.00
2019-05-26T00:57:31.328Z,100878.95
2019-05-26T01:00:00.802Z,100870.69
2019-05-26T01:02:30.281Z,100875.00
2019-05-26T01:04:59.853Z,100862.30
2019-05-26T01:07:29.309Z,100866.48
2019-05-26T01:09:58.810Z,100863.70
2019-05-26T01:12:28.309Z,100858.65
2019-05-26T01:14:57.765Z,100851.98
2019-05-26T01:17:27.287Z,100853.88
2019-05-26T01:19:56.762Z,100848.61
2019-05-26T01:22:26.245Z,100843.72
2019-05-26T01:24:55.814Z,100847.67
2019-05-26T01:27:25.257Z,100844.92
2019-05-26T01:29:54.807Z,100840.11
2019-05-26T01:32:24.366Z,100837.36
2019-05-26T01:34:53.841Z,100837.31
2019-05-26T01:37:23.347Z,100830.87
2019-05-26T01:39:52.805Z,100838.62
2019-05-26T01:42:22.299Z,100831.45
2019-05-26T01:44:51.742Z,100831.05
2019-05-26T01:47:21.235Z,100831.20
2019-05-26T01:49:50.712Z,100825.53
2019-05-26T01:52:20.175Z,100824.83
2019-05-26T01:54:49.731Z,100823.28
2019-05-26T01:57:19.156Z,100822.31
2019-05-26T01:59:48.820Z,100815.96
2019-05-26T02:02:18.280Z,100820.66
2019-05-26T02:04:47.725Z,100816.58
2019-05-26T02:07:17.221Z,100818.01
2019-05-26T02:09:46.723Z,100812.00
2019-05-26T02:12:16.171Z,100807.94
2019-05-26T02:14:45.615Z,100810.11
2019-05-26T02:17:15.096Z,100810.45
2019-05-26T02:19:44.537Z,100808.52
2019-05-26T02:22:14.012Z,100804.66
2019-05-26T02:24:43.481Z,100803.34
2019-05-26T02:27:12.934Z,100798.91
2019-05-26T02:29:42.378Z,100793.88
2019-05-26T02:32:11.202Z,100791.23
2019-05-26T02:34:40.639Z,100787.04
2019-05-26T02:37:10.088Z,100779.59
2019-05-26T02:39:39.578Z,100774.54
2019-05-26T02:42:09.102Z,100772.42
2019-05-26T02:44:38.594Z,100770.52
2019-05-26T02:47:08.077Z,100766.67
2019-05-26T02:49:37.607Z,100770.01
2019-05-26T02:52:07.042Z,100769.54
2019-05-26T02:54:36.591Z,100761.97
2019-05-26T02:57:06.056Z,100754.75
2019-05-26T02:59:35.521Z,100767.00
2019-05-26T03:02:05.201Z,100762.31
2019-05-26T03:04:34.683Z,100753.28
2019-05-26T03:07:04.583Z,100766.72
2019-05-26T03:09:37.016Z,100760.45
2019-05-26T03:12:06.470Z,100763.19
2019-05-26T03:14:37.193Z,100760.42
2019-05-26T03:17:06.698Z,100760.08
2019-05-26T03:19:36.173Z,100760.42
2019-05-26T03:22:05.939Z,100761.00
2019-05-26T03:24:37.115Z,100754.27
2019-05-26T03:27:06.573Z,100756.47
2019-05-26T03:29:36.077Z,100752.42
2019-05-26T03:32:05.543Z,100742.84
2019-05-26T03:34:35.029Z,100745.58
2019-05-26T03:37:04.469Z,100741.62
2019-05-26T03:39:44.718Z,100731.91
2019-05-26T03:42:05.191Z,100720.72
2019-05-26T03:44:34.688Z,100717.51
2019-05-26T03:47:04.164Z,100720.50
2019-05-26T03:49:33.678Z,100716.41
2019-05-26T03:52:03.119Z,100717.00
2019-05-26T03:54:32.598Z,100707.14
2019-05-26T03:57:02.060Z,100699.44
2019-05-26T03:59:33.093Z,100698.36
2019-05-26T04:02:02.674Z,100700.28
2019-05-26T04:04:32.215Z,100700.12
2019-05-26T04:07:01.760Z,100692.25
2019-05-26T04:09:31.238Z,100695.14
2019-05-26T04:12:00.727Z,100683.69
2019-05-26T04:14:31.504Z,100685.02
2019-05-26T04:17:00.978Z,100674.66
2019-05-26T04:19:30.462Z,100670.41
2019-05-26T04:21:59.939Z,100663.89
2019-05-26T04:24:32.353Z,100666.41
2019-05-26T04:27:01.832Z,100669.64
2019-05-26T04:29:31.306Z,100670.88
2019-05-26T04:32:02.126Z,100670.06
2019-05-26T04:34:31.709Z,100663.95
2019-05-26T04:37:01.305Z,100667.02
2019-05-26T04:39:30.650Z,100667.48
2019-05-26T04:42:00.114Z,100663.91
2019-05-26T04:44:29.601Z,100668.80
2019-05-26T04:46:59.075Z,100671.52
2019-05-26T04:49:28.552Z,100665.60
2019-05-26T04:51:58.038Z,100664.12
2019-05-26T04:54:27.509Z,100659.50
2019-05-26T04:56:57.003Z,100663.27
2019-05-26T04:59:26.495Z,100652.66
2019-05-26T05:01:56.001Z,100652.68
2019-05-26T05:04:25.453Z,100644.09
2019-05-26T05:06:54.916Z,100637.64
2019-05-26T05:09:24.434Z,100652.70
2019-05-26T05:11:53.926Z,100647.47
2019-05-26T05:14:23.441Z,100647.73
2019-05-26T05:16:52.926Z,100642.97
2019-05-26T05:19:22.402Z,100639.70
2019-05-26T05:21:51.934Z,100637.84
2019-05-26T05:24:21.498Z,100634.60
2019-05-26T05:26:51.033Z,100628.03
2019-05-26T05:29:20.442Z,100629.94
2019-05-26T05:31:49.939Z,100630.33
2019-05-26T05:34:19.418Z,100621.50
2019-05-26T05:36:48.865Z,100616.61
2019-05-26T05:39:18.366Z,100613.72
2019-05-26T05:41:47.839Z,100614.34
2019-05-26T05:44:17.395Z,100608.38
2019-05-26T05:46:46.893Z,100610.03
2019-05-26T05:49:16.408Z,100605.87
2019-05-26T05:51:45.875Z,100603.08
2019-05-26T05:54:15.438Z,100594.61
2019-05-26T05:56:44.909Z,100598.64
2019-05-26T05:59:14.519Z,100601.86
2019-05-26T06:01:44.009Z,100596.95
2019-05-26T06:04:13.506Z,100594.23
2019-05-26T06:06:42.965Z,100584.59
2019-05-26T06:09:12.491Z,100588.66
2019-05-26T06:11:41.949Z,100595.29
2019-05-26T06:14:11.428Z,100581.98
2019-05-26T06:16:40.908Z,100581.98
2019-05-26T06:19:10.363Z,100580.09
2019-05-26T06:21:39.882Z,100576.30
2019-05-26T06:24:09.367Z,100572.38
2019-05-26T06:26:38.888Z,100572.32
2019-05-26T06:29:08.331Z,100572.66
2019-05-26T06:31:37.880Z,100566.44
2019-05-26T06:34:07.319Z,100564.87
2019-05-26T06:36:36.774Z,100558.23
2019-05-26T06:39:08.401Z,100562.39
2019-05-26T06:41:37.852Z,100558.31
2019-05-26T06:44:07.321Z,100561.36
2019-05-26T06:46:36.830Z,100557.80
2019-05-26T06:49:06.357Z,100552.25
2019-05-26T06:51:35.860Z,100554.30
2019-05-26T06:54:05.352Z,100550.02
2019-05-26T06:56:34.823Z,100546.40
2019-05-26T06:59:04.416Z,100552.28
2019-05-26T07:01:33.928Z,100554.59
2019-05-26T07:04:03.401Z,100558.14
2019-05-26T07:06:32.878Z,100557.69
2019-05-26T07:09:02.283Z,100555.28
2019-05-26T07:11:31.737Z,100551.53
2019-05-26T07:14:01.293Z,100546.57
2019-05-26T07:16:38.217Z,100550.15
2019-05-26T07:19:03.018Z,100542.35
2019-05-26T07:21:32.464Z,100536.84
2019-05-26T07:24:01.912Z,100541.84
2019-05-26T07:26:31.375Z,100541.17
2019-05-26T07:29:00.859Z,100542.78
2019-05-26T07:31:30.381Z,100542.96
2019-05-26T07:34:00.612Z,100539.00
2019-05-26T07:36:30.410Z,100538.75
2019-05-26T07:39:00.448Z,100540.41
2019-05-26T07:41:29.917Z,100546.44
2019-05-26T07:43:59.420Z,100535.97
2019-05-26T07:46:28.927Z,100536.00
2019-05-26T07:48:58.398Z,100530.22
2019-05-26T07:51:27.950Z,100527.38
2019-05-26T07:53:57.476Z,100524.73
2019-05-26T07:56:26.989Z,100524.56
2019-05-26T07:58:56.571Z,100517.59
2019-05-26T08:01:35.106Z,100519.73
2019-05-26T08:03:57.601Z,100518.44
2019-05-26T08:06:27.109Z,100511.13
2019-05-26T08:08:56.660Z,100515.30
2019-05-26T08:11:26.145Z,100512.45
2019-05-26T08:13:55.866Z,100506.62
2019-05-26T08:16:25.433Z,100511.95
2019-05-26T08:18:54.986Z,100507.48
2019-05-26T08:21:24.492Z,100503.14
2019-05-26T08:23:53.969Z,100494.16
2019-05-26T08:26:23.983Z,100497.16
2019-05-26T08:28:54.726Z,100495.48
2019-05-26T08:31:24.375Z,100496.31
2019-05-26T08:33:53.918Z,100496.97
2019-05-26T08:36:23.435Z,100481.95
2019-05-26T08:38:52.926Z,100481.84
2019-05-26T08:41:22.404Z,100476.70
2019-05-26T08:43:51.915Z,100476.36
2019-05-26T08:46:21.465Z,100481.84
2019-05-26T08:48:50.938Z,100476.72
2019-05-26T08:51:20.411Z,100464.08
2019-05-26T08:53:49.942Z,100462.42
2019-05-26T08:56:19.454Z,100463.77
2019-05-26T08:58:48.926Z,100466.07
2019-05-26T09:01:18.496Z,100455.93
2019-05-26T09:03:48.026Z,100452.61
2019-05-26T09:06:17.546Z,100458.59
2019-05-26T09:08:47.091Z,100455.38
2019-05-26T09:11:16.554Z,100464.03
2019-05-26T09:13:46.131Z,100448.05
2019-05-26T09:16:15.783Z,100455.03
2019-05-26T09:18:45.269Z,100452.02
2019-05-26T09:21:14.751Z,100445.89
2019-05-26T09:23:44.275Z,100448.71
2019-05-26T09:26:13.789Z,100464.27
2019-05-26T09:28:43.304Z,100451.64
2019-05-26T09:31:14.007Z,100459.88
2019-05-26T09:33:43.506Z,100452.89
2019-05-26T09:36:13.338Z,100454.56
2019-05-26T09:38:42.883Z,100458.53
2019-05-26T09:41:12.375Z,100461.09
2019-05-26T09:43:42.266Z,100467.37
2019-05-26T09:46:11.746Z,100462.05
2019-05-26T09:48:41.449Z,100456.91
2019-05-26T09:51:11.055Z,100457.45
2019-05-26T09:53:40.596Z,100455.95
2019-05-26T09:56:10.072Z,100457.27
2019-05-26T09:58:39.536Z,100457.47
2019-05-26T10:01:09.070Z,100445.88
2019-05-26T10:03:38.522Z,100450.85
2019-05-26T10:06:07.998Z,100440.05
2019-05-26T10:08:37.506Z,100443.40
2019-05-26T10:11:06.981Z,100447.20
2019-05-26T10:13:36.443Z,100444.55
2019-05-26T10:16:05.935Z,100448.86
2019-05-26T10:18:35.393Z,100445.34
2019-05-26T10:21:05.189Z,100449.17
2019-05-26T10:23:34.714Z,100443.86
2019-05-26T10:26:04.216Z,100447.02
2019-05-26T10:28:33.696Z,100438.42
2019-05-26T10:31:03.229Z,100436.41
2019-05-26T10:33:32.771Z,100443.91
2019-05-26T10:36:02.256Z,100442.59
2019-05-26T10:38:31.750Z,100437.48
2019-05-26T10:41:01.249Z,100432.70
2019-05-26T10:43:44.470Z,100433.05
2019-05-26T10:46:02.042Z,100435.05
2019-05-26T10:48:31.518Z,100423.78
2019-05-26T10:51:01.287Z,100435.36
2019-05-26T10:53:30.782Z,100439.36
2019-05-26T10:56:00.293Z,100442.52
2019-05-26T10:58:29.847Z,100430.06
2019-05-26T11:00:59.367Z,100434.07
2019-05-26T11:03:28.874Z,100428.09
2019-05-26T11:05:58.440Z,100437.91
2019-05-26T11:08:28.740Z,100429.41
2019-05-26T11:10:58.219Z,100429.60
2019-05-26T11:13:27.751Z,100421.97
2019-05-26T11:15:57.259Z,100422.94
2019-05-26T11:18:26.759Z,100416.30
2019-05-26T11:20:56.364Z,100416.63
2019-05-26T11:23:26.147Z,100416.48
2019-05-26T11:25:55.682Z,100416.64
2019-05-26T11:28:25.208Z,100417.50
2019-05-26T11:30:54.674Z,100418.16
2019-05-26T11:33:24.204Z,100412.89
2019-05-26T11:35:53.767Z,100409.07
2019-05-26T11:38:23.438Z,100414.38
2019-05-26T11:40:53.027Z,100406.91
2019-05-26T11:43:22.457Z,100398.58
2019-05-26T11:45:52.013Z,100402.41
2019-05-26T11:48:21.519Z,100398.58
2019-05-26T11:50:50.992Z,100392.94
2019-05-26T11:53:20.479Z,100387.09
2019-05-26T11:55:49.854Z,100385.40
2019-05-26T11:58:19.335Z,100391.89
2019-05-26T12:00:48.846Z,100385.93
2019-05-26T12:03:18.292Z,100384.96
2019-05-26T12:05:47.787Z,100385.28
2019-05-26T12:08:17.224Z,100383.95
2019-05-26T12:10:46.709Z,100372.95
2019-05-26T12:13:16.216Z,100377.08
2019-05-26T12:15:45.655Z,100374.95
2019-05-26T12:18:15.156Z,100375.22
2019-05-26T12:20:44.651Z,100364.40
2019-05-26T12:23:14.143Z,100366.19
2019-05-26T12:25:43.652Z,100364.84
2019-05-26T12:28:13.158Z,100360.44
2019-05-26T12:30:42.624Z,100365.44
2019-05-26T12:33:12.167Z,100363.38
2019-05-26T12:35:46.199Z,100354.53
2019-05-26T12:38:16.235Z,100349.37
2019-05-26T12:40:45.711Z,100352.94
2019-05-26T12:43:15.244Z,100356.23
2019-05-26T12:45:44.728Z,100351.43
2019-05-26T12:48:14.226Z,100355.87
2019-05-26T12:50:43.704Z,100350.64
2019-05-26T12:53:13.211Z,100348.22
2019-05-26T12:55:42.764Z,100348.30
2019-05-26T12:58:12.272Z,100352.24
2019-05-26T13:00:48.920Z,100345.48
2019-05-26T13:03:13.006Z,100343.22
2019-05-26T13:05:43.008Z,100343.62
2019-05-26T13:08:12.516Z,100333.09
2019-05-26T13:10:41.991Z,100328.22
